This is the latest recevied weather packets stored in our database for station/object LU8AQL-WX. If no packets are shown the sender has not sent any weather packets the latest 10 day(s).
| Time | Temp. | Humidity | Pressure | Rain* | Wind** | Luminosity | Snow |
|---|---|---|---|---|---|---|---|
| 1777508323 | 16.11° C | 55% | 1014 hPa | 0 mm | - | - | - |
| 1777507722 | 16.11° C | 54% | 1014 hPa | 0 mm | - | - | - |
| 1777507121 | 16.11° C | 57% | 1014 hPa | 0 mm | - | - | - |
| 1777506520 | 16.11° C | 56% | 1014 hPa | 0 mm | - | - | - |
| 1777505919 | 16.11° C | 58% | 1014 hPa | 0 mm | - | - | - |
| 1777505318 | 16.11° C | 59% | 1013 hPa | 0 mm | - | - | - |
| 1777504717 | 16.67° C | 58% | 1013 hPa | 0 mm | - | - | - |
| 1777504116 | 17.22° C | 55% | 1013 hPa | 0 mm | - | - | - |
| 1777503515 | 17.22° C | 55% | 1013 hPa | 0 mm | - | - | - |
| 1777502914 | 17.22° C | 54% | 1013 hPa | 0 mm | - | - | - |
| 1777502313 | 17.78° C | 52% | 1013 hPa | 0 mm | - | - | - |
| 1777501712 | 17.78° C | 52% | 1012 hPa | 0 mm | - | - | - |
| 1777501109 | 18.33° C | 50% | 1012 hPa | 0 mm | - | - | - |
| 1777500509 | 18.89° C | 50% | 1012 hPa | 0 mm | - | - | - |
| 1777499908 | 18.89° C | 49% | 1012 hPa | 0 mm | - | - | - |
| 1777499307 | 18.89° C | 49% | 1012 hPa | 0 mm | - | - | - |
| 1777498706 | 18.89° C | 48% | 1012 hPa | 0 mm | - | - | - |
| 1777498105 | 20° C | 45% | 1012 hPa | 0 mm | - | - | - |
| 1777497504 | 20.56° C | 44% | 1012 hPa | 0 mm | - | - | - |
| 1777496903 | 21.11° C | 40% | 1012 hPa | 0 mm | - | - | - |
| 1777496302 | 21.67° C | 40% | 1012 hPa | 0 mm | - | - | - |
| 1777495701 | 22.22° C | 36% | 1012 hPa | 0 mm | - | - | - |
| 1777495100 | 22.22° C | 37% | 1012 hPa | 0 mm | - | - | - |
| 1777494499 | 22.22° C | 37% | 1011 hPa | 0 mm | - | - | - |
| 1777493898 | 22.78° C | 37% | 1011 hPa | 0 mm | - | - | - |
* Rain latest hour (hover to see other rain measurements)
** Current wind speed in m/s (hover to see current wind gust speed)